Etusivu
METAR-TAF:

METAR-TAF

Lentoasemat :

Eindhoven, Alankomaat

Leveyspiiri: 51-27N, Pituuspiiri: 005-25E, korkeus merenpinnasta: 23 m

Tämänhetkinen sää

Tämä raportti tehtiin 19 minuuttia sitten, kello 03.25 UTC
Tuuli 2 kn lounaasta
Lämpötila -2°C
Kosteus 93%
Ilmanpaine 1026 hPa
Näkyvyys 10 km tai enemmän
Hajanaisia pilviä 3200 ft:n korkeudessa
Hajonneita pilviä 3700 ft:n korkeudessa

METAR: EHEH 190325Z AUTO 22002KT 9999 SCT032 BKN037 M02/M03 Q1026 BLU

Aika: 04:44 (03:44 UTC)

Sääennuste

Tämä raportti tehtiin 4 tuntia ja 2 minuuttia sitten, kello 23.42 UTC
Ennuste voimassa 19. päivästä klo 00 UTC - 20. päivään klo 06 UTC
Tuuli 3 kn etelästä/lounaasta
Näkyvyys 10 km tai enemmän
ei pilviä alle 1500 m:ssä eikä cumulonimbus-pilviä
Todennäköisyys 30% :
Ajoittain
19. päivästä klo 02 UTC - 19. päivään klo 06 UTC
Näkyvyys: 4000 m
Matala sumu, utua

TAF: EHEH 182342Z 1900/2006 21003KT CAVOK PROB30 TEMPO 1902/1906 4000 MIFG BR

Säähavainnot ja -ennusteet yli 4000 lentoasemalta (METAR- ja TAF-raportit).

Käytössä olevat sääasemat on merkitty karttaan keltaisilla ja punaisilla pisteillä.

Aseta hiiri pisteen päälle nähdäksesi sääaseman nimen.

Klikkaa sitten nähdäksesi säähavainnot ja -ennusteet.

Kartan vaihtaminen: klikkaa mustalla rastilla varustettuja vihreitä pisteitä, niin voit zoomata sisään; viivalla varustettua vihreää pistettä, niin voit zoomata ulos tai vihreitä nuolia, niin pääset viereisille kartoille.


METAR-TAF: